Time;durP1;ratioP1;P1;durP2;ratioP2;P2;SDS_P1;SDS_P2;PMS_P1;PMS_P2;Temp;Humidity;BMP_temperature;BMP_pressure;BME280_temperature;BME280_humidity;BME280_pressure;Samples;Min_cycle;Max_cycle;Signal;HPM_P1;HPM_P2
2023/03/25 00:00:27;;;;;;;3.77;2.47;;;;;;;12.19;69.04;98706.00;5052003;28;20211;-74
2023/03/25 00:02:54;;;;;;;2.40;1.73;;;;;;;12.19;69.28;98711.13;5053086;28;20199;-74
2023/03/25 00:05:22;;;;;;;4.60;2.17;;;;;;;12.27;68.80;98708.69;5052779;28;20566;-74
2023/03/25 00:07:51;;;;;;;5.43;2.10;;;;;;;12.18;69.44;98709.50;5052445;28;20232;-74
2023/03/25 00:10:20;;;;;;;4.57;1.80;;;;;;;12.16;69.32;98711.38;5052737;28;20227;-74
2023/03/25 00:12:47;;;;;;;2.40;1.50;;;;;;;12.12;69.71;98704.88;5052561;28;20572;-74
2023/03/25 00:15:15;;;;;;;4.90;3.13;;;;;;;12.13;69.39;98701.38;5052548;28;20206;-74
2023/03/25 00:17:42;;;;;;;4.23;2.63;;;;;;;12.16;69.49;98703.69;5052533;28;20262;-74
2023/03/25 00:20:11;;;;;;;4.57;2.70;;;;;;;12.21;68.84;98702.34;5052656;28;20628;-74
2023/03/25 00:22:39;;;;;;;3.33;1.80;;;;;;;12.15;69.68;98696.94;5052412;28;20370;-74
2023/03/25 00:25:08;;;;;;;2.83;1.87;;;;;;;12.02;71.07;98704.06;5052400;28;20242;-74
2023/03/25 00:27:37;;;;;;;5.53;2.07;;;;;;;11.90;71.80;98701.59;5052128;28;20219;-74
2023/03/25 00:30:05;;;;;;;3.13;1.77;;;;;;;11.85;71.82;98703.72;5052102;28;20723;-74
2023/03/25 00:32:32;;;;;;;4.10;1.80;;;;;;;11.73;72.55;98704.72;5052182;28;20215;-74
2023/03/25 00:34:59;;;;;;;3.67;1.97;;;;;;;11.60;73.19;98701.53;5052186;28;20226;-74
2023/03/25 00:37:26;;;;;;;4.50;2.40;;;;;;;11.47;74.71;98701.72;5052380;28;20573;-74
2023/03/25 00:39:53;;;;;;;2.70;1.67;;;;;;;11.38;75.73;98698.19;5052451;28;20223;-74
2023/03/25 00:42:24;;;;;;;3.53;1.77;;;;;;;11.33;76.75;98702.84;5052181;28;20203;-74
2023/03/25 00:44:53;;;;;;;5.10;2.43;;;;;;;11.29;77.01;98696.38;5052312;28;20223;-74
2023/03/25 00:47:20;;;;;;;3.67;2.27;;;;;;;11.22;77.61;98696.03;5051839;28;20207;-74
2023/03/25 00:49:48;;;;;;;2.87;1.83;;;;;;;11.34;76.77;98689.13;5051924;28;20300;-74
2023/03/25 00:52:15;;;;;;;2.87;1.60;;;;;;;11.45;77.17;98685.69;5052014;28;20657;-74
2023/03/25 00:54:44;;;;;;;2.30;1.77;;;;;;;11.40;78.23;98682.69;5052072;28;20652;-74
2023/03/25 00:57:11;;;;;;;3.27;1.70;;;;;;;11.31;78.54;98681.69;5051859;28;20795;-74
2023/03/25 00:59:38;;;;;;;5.43;1.63;;;;;;;11.17;78.82;98676.88;5051893;28;20230;-74
2023/03/25 01:02:08;;;;;;;1.90;1.30;;;;;;;11.17;78.16;98682.84;5051667;28;20204;-74
2023/03/25 01:04:36;;;;;;;3.67;2.13;;;;;;;11.13;78.45;98675.50;5051628;28;20241;-74
2023/03/25 01:07:03;;;;;;;3.07;1.30;;;;;;;11.07;78.13;98676.81;5051523;28;20199;-74
2023/03/25 01:09:31;;;;;;;3.80;2.10;;;;;;;11.02;78.79;98676.38;5051372;28;20246;-74
2023/03/25 01:11:57;;;;;;;2.73;1.50;;;;;;;10.92;79.85;98678.88;5050859;28;20195;-74
2023/03/25 01:14:26;;;;;;;2.57;1.80;;;;;;;10.86;80.33;98674.25;5051310;28;20227;-74
2023/03/25 01:16:53;;;;;;;4.30;1.93;;;;;;;10.71;81.38;98670.38;5051423;28;20256;-74
2023/03/25 01:19:23;;;;;;;2.33;1.60;;;;;;;10.66;81.97;98673.28;5051689;28;20215;-74
2023/03/25 01:21:50;;;;;;;4.53;1.90;;;;;;;10.51;82.45;98669.38;5051264;28;20206;-74
2023/03/25 01:24:17;;;;;;;2.30;1.67;;;;;;;10.47;83.15;98668.81;5051478;28;20403;-74
2023/03/25 01:26:45;;;;;;;2.30;1.20;;;;;;;10.49;82.93;98656.69;5051208;28;20206;-74
2023/03/25 01:29:14;;;;;;;2.23;1.40;;;;;;;10.53;83.32;98653.00;5051273;28;20239;-74
2023/03/25 01:31:41;;;;;;;3.17;1.77;;;;;;;10.60;82.54;98654.13;5051427;28;20298;-74
2023/03/25 01:34:09;;;;;;;5.23;1.57;;;;;;;10.65;82.06;98654.56;5051247;28;20223;-74
2023/03/25 01:36:38;;;;;;;2.40;1.53;;;;;;;10.63;82.62;98648.75;5051111;28;20207;-74
2023/03/25 01:39:07;;;;;;;3.13;1.70;;;;;;;10.60;83.63;98649.00;5050768;28;20314;-74
2023/03/25 01:41:35;;;;;;;2.80;1.50;;;;;;;10.64;84.65;98645.25;5050884;28;20671;-74
2023/03/25 01:44:07;;;;;;;3.10;1.90;;;;;;;10.56;84.05;98642.53;5050754;28;20246;-74
2023/03/25 01:46:34;;;;;;;3.30;1.70;;;;;;;10.45;84.34;98640.00;5050782;28;20245;-74
2023/03/25 01:49:04;;;;;;;2.00;1.67;;;;;;;10.42;84.18;98630.03;5050519;28;20532;-74
2023/03/25 01:51:35;;;;;;;2.87;1.70;;;;;;;10.38;84.66;98623.50;5050623;28;20203;-74
2023/03/25 01:54:05;;;;;;;2.80;1.30;;;;;;;10.37;84.49;98619.34;5050442;28;20230;-74
2023/03/25 01:56:35;;;;;;;1.40;1.10;;;;;;;10.62;83.92;98619.03;5050644;28;20210;-74
2023/03/25 01:59:06;;;;;;;3.00;1.57;;;;;;;10.91;81.62;98605.66;5050617;28;20772;-74
2023/03/25 02:01:33;;;;;;;1.70;1.17;;;;;;;10.99;81.26;98605.81;5050495;28;20195;-74
2023/03/25 02:04:08;;;;;;;1.43;1.17;;;;;;;11.05;81.17;98602.78;5050442;28;20223;-74
2023/03/25 02:06:42;;;;;;;1.80;1.33;;;;;;;11.16;80.09;98598.50;5050400;28;20286;-74
2023/03/25 02:09:13;;;;;;;3.10;1.53;;;;;;;11.29;79.34;98596.56;5050480;28;20617;-74
2023/03/25 02:11:40;;;;;;;1.90;1.47;;;;;;;11.45;78.62;98599.44;5050425;28;20199;-74
2023/03/25 02:14:10;;;;;;;3.77;1.63;;;;;;;11.60;77.06;98599.91;5050100;28;20230;-74
2023/03/25 02:16:46;;;;;;;2.70;1.70;;;;;;;11.77;75.93;98601.06;5050244;28;20277;-74
2023/03/25 02:19:39;;;;;;;1.67;1.23;;;;;;;12.06;74.40;98595.22;5050351;28;20710;-74
2023/03/25 02:22:55;;;;;;;3.07;1.50;;;;;;;12.18;73.41;98592.41;5049999;28;20262;-74
2023/03/25 02:25:44;;;;;;;2.47;1.30;;;;;;;12.16;72.98;98590.94;4949891;29;20411;-74
2023/03/25 02:28:24;;;;;;;2.30;1.73;;;;;;;12.10;73.03;98594.00;4949626;29;20234;-74
2023/03/25 02:31:35;;;;;;;1.47;1.37;;;;;;;11.89;73.87;98594.91;5028440;28;20294;-74
2023/03/25 02:34:33;;;;;;;3.30;1.70;;;;;;;11.77;74.93;98598.50;5003930;28;20715;-74
2023/03/25 02:37:19;;;;;;;4.67;1.60;;;;;;;11.75;74.15;98590.13;5044892;28;20210;-74
2023/03/25 02:39:52;;;;;;;2.70;1.40;;;;;;;11.81;74.00;98599.88;5049926;28;20232;-74
2023/03/25 02:42:25;;;;;;;2.77;1.67;;;;;;;11.86;73.88;98587.50;5050112;28;20692;-74
2023/03/25 02:44:59;;;;;;;3.03;1.40;;;;;;;11.89;73.72;98589.78;5049955;28;20250;-74
2023/03/25 02:47:31;;;;;;;1.47;1.10;;;;;;;11.90;73.57;98590.63;5050006;28;20206;-74
2023/03/25 02:50:06;;;;;;;2.47;1.70;;;;;;;11.82;74.04;98586.13;5049724;28;20239;-74
2023/03/25 02:52:38;;;;;;;1.90;1.57;;;;;;;11.69;74.43;98590.66;5049920;28;20203;-74
2023/03/25 02:55:10;;;;;;;2.27;1.67;;;;;;;11.56;75.04;98590.88;5049806;28;20254;-74
2023/03/25 02:57:40;;;;;;;6.00;1.77;;;;;;;11.47;75.75;98589.91;5049893;28;20195;-74
2023/03/25 03:00:14;;;;;;;5.60;1.83;;;;;;;11.32;76.28;98584.31;5049851;28;20221;-74
2023/03/25 03:02:44;;;;;;;1.83;1.33;;;;;;;11.24;76.96;98581.59;5049805;28;20642;-74
2023/03/25 03:05:30;;;;;;;2.23;1.40;;;;;;;11.19;77.35;98572.66;5049844;28;20644;-74
2023/03/25 03:08:17;;;;;;;2.90;1.40;;;;;;;11.28;76.75;98566.78;5049643;28;20299;-74
2023/03/25 03:10:54;;;;;;;1.80;1.23;;;;;;;11.33;76.15;98564.66;5049659;28;20241;-74
2023/03/25 03:13:29;;;;;;;1.13;1.03;;;;;;;11.43;75.14;98569.81;5049747;28;20714;-74
2023/03/25 03:16:07;;;;;;;1.97;1.30;;;;;;;11.37;75.09;98565.19;5049738;28;20234;-74
2023/03/25 03:18:45;;;;;;;1.57;1.23;;;;;;;11.25;74.90;98574.72;5049687;28;20624;-74
2023/03/25 03:21:16;;;;;;;2.07;1.43;;;;;;;11.22;75.34;98572.41;5049896;28;20211;-74
2023/03/25 03:23:55;;;;;;;1.37;1.27;;;;;;;11.19;76.55;98577.78;5049840;28;20215;-74
2023/03/25 03:26:30;;;;;;;2.33;1.73;;;;;;;11.14;75.91;98579.91;5049875;28;20206;-74
2023/03/25 03:29:04;;;;;;;3.30;1.73;;;;;;;11.00;77.83;98573.38;5049438;28;20329;-74
2023/03/25 03:31:40;;;;;;;2.30;1.53;;;;;;;11.00;78.69;98574.19;5049364;28;20204;-74
2023/03/25 03:34:14;;;;;;;2.87;1.50;;;;;;;11.01;78.69;98575.00;5050514;28;20609;-74
2023/03/25 03:36:45;;;;;;;2.30;1.47;;;;;;;11.00;79.42;98579.31;5053240;28;20203;-74
2023/03/25 03:39:18;;;;;;;3.00;1.53;;;;;;;10.97;79.70;98574.44;5053566;28;20227;-74
2023/03/25 03:41:51;;;;;;;2.10;1.73;;;;;;;10.79;80.58;98578.47;5053274;28;20290;-74
2023/03/25 03:44:22;;;;;;;5.17;1.70;;;;;;;10.70;81.59;98579.22;5053198;28;20250;-74
2023/03/25 03:46:57;;;;;;;2.67;1.53;;;;;;;10.63;81.96;98574.63;5053148;28;20202;-74
2023/03/25 03:49:29;;;;;;;3.50;1.50;;;;;;;10.53;81.47;98581.41;5053357;28;20271;-74
2023/03/25 03:52:01;;;;;;;3.10;1.63;;;;;;;10.51;80.93;98580.72;5053199;28;20207;-74
2023/03/25 03:54:32;;;;;;;1.83;1.37;;;;;;;10.61;79.67;98588.47;5052998;28;20235;-74
2023/03/25 03:57:04;;;;;;;1.60;1.30;;;;;;;10.74;77.89;98585.75;5052771;28;20199;-74
2023/03/25 03:59:40;;;;;;;1.47;1.13;;;;;;;10.73;78.54;98578.97;5053145;28;20223;-74
2023/03/25 04:02:13;;;;;;;1.43;1.27;;;;;;;10.85;78.26;98580.56;5052729;28;20710;-74
2023/03/25 04:04:41;;;;;;;1.17;0.97;;;;;;;10.88;78.88;98585.44;5053087;28;20223;-74
2023/03/25 04:07:14;;;;;;;1.90;1.60;;;;;;;10.83;79.57;98579.88;5052795;28;20196;-74
2023/03/25 04:09:53;;;;;;;1.77;0.97;;;;;;;10.78;79.67;98584.53;5052961;28;20262;-74
2023/03/25 04:12:25;;;;;;;4.07;1.63;;;;;;;10.99;76.28;98572.56;5052573;28;20188;-74
2023/03/25 04:14:53;;;;;;;4.07;1.50;;;;;;;10.83;76.90;98577.31;5052667;28;20234;-74
2023/03/25 04:17:20;;;;;;;2.03;1.23;;;;;;;10.86;75.86;98577.06;5052721;28;20212;-74
2023/03/25 04:19:47;;;;;;;1.33;1.17;;;;;;;10.91;75.31;98569.84;5052371;28;20238;-74
2023/03/25 04:22:17;;;;;;;1.30;1.20;;;;;;;10.95;75.27;98573.75;5052504;28;20604;-74
2023/03/25 04:24:44;;;;;;;1.67;1.30;;;;;;;10.86;76.30;98574.50;5052606;28;20803;-74
2023/03/25 04:27:12;;;;;;;1.10;1.00;;;;;;;10.84;77.14;98578.94;5052261;28;20207;-74
2023/03/25 04:29:42;;;;;;;1.53;1.00;;;;;;;10.82;77.72;98580.78;5052137;28;20239;-74
2023/03/25 04:32:12;;;;;;;1.90;1.30;;;;;;;10.73;78.71;98584.09;5052254;28;20203;-74
2023/03/25 04:34:38;;;;;;;1.37;1.27;;;;;;;10.73;78.84;98586.66;5052186;28;20223;-74
2023/03/25 04:37:05;;;;;;;2.73;1.40;;;;;;;10.75;78.71;98584.78;5052189;28;20207;-74
2023/03/25 04:39:33;;;;;;;3.53;1.60;;;;;;;10.82;78.83;98591.03;5052267;28;20583;-74
2023/03/25 04:42:02;;;;;;;1.80;1.20;;;;;;;10.83;79.70;98592.66;5052009;28;20672;-74
2023/03/25 04:44:32;;;;;;;2.20;1.10;;;;;;;10.92;79.63;98597.03;5052158;28;20222;-74
2023/03/25 04:47:02;;;;;;;1.47;1.30;;;;;;;11.03;79.29;98606.38;5052323;28;20206;-74
2023/03/25 04:49:29;;;;;;;2.20;1.53;;;;;;;11.21;79.49;98611.75;5051816;28;20635;-74
2023/03/25 04:51:57;;;;;;;1.77;1.20;;;;;;;11.42;79.09;98615.06;5052028;28;20210;-74
2023/03/25 04:54:25;;;;;;;2.10;1.47;;;;;;;11.65;80.76;98615.72;5051856;28;20226;-74
2023/03/25 04:56:52;;;;;;;1.23;1.13;;;;;;;11.86;75.65;98618.22;5051982;28;20221;-74
2023/03/25 04:59:22;;;;;;;1.23;1.13;;;;;;;12.06;73.93;98618.28;5051739;28;20227;-74
2023/03/25 05:01:49;;;;;;;2.50;1.50;;;;;;;12.19;74.45;98617.09;5051662;28;20290;-74
2023/03/25 05:04:18;;;;;;;1.80;1.23;;;;;;;12.34;74.83;98617.53;5051584;28;20254;-74
2023/03/25 05:06:47;;;;;;;2.53;1.23;;;;;;;12.46;73.58;98616.44;5051637;28;20200;-74
2023/03/25 05:09:15;;;;;;;2.07;1.20;;;;;;;12.62;76.64;98609.97;5051338;28;20722;-74
2023/03/25 05:11:43;;;;;;;1.80;1.53;;;;;;;12.84;76.94;98614.81;5051427;28;20254;-74
2023/03/25 05:14:10;;;;;;;1.63;1.40;;;;;;;13.07;76.61;98624.78;5051517;28;20234;-74
2023/03/25 05:16:37;;;;;;;3.97;1.77;;;;;;;13.33;75.88;98623.28;5051562;28;20214;-74
2023/03/25 05:19:05;;;;;;;2.17;1.73;;;;;;;13.56;72.41;98623.72;5051226;28;20317;-74
2023/03/25 05:21:36;;;;;;;3.27;1.43;;;;;;;13.66;69.17;98623.69;5051352;28;20631;-74
2023/03/25 05:24:03;;;;;;;3.20;1.67;;;;;;;13.78;68.31;98622.53;5051407;28;20230;-74
2023/03/25 05:26:33;;;;;;;1.80;1.53;;;;;;;13.81;69.69;98624.81;5051294;28;20207;-74
2023/03/25 05:29:01;;;;;;;2.23;1.30;;;;;;;13.91;69.37;98624.00;5050963;28;20245;-74
2023/03/25 05:31:28;;;;;;;2.43;1.80;;;;;;;14.05;70.67;98626.09;5051271;28;20239;-74
2023/03/25 05:33:56;;;;;;;2.50;1.63;;;;;;;14.18;69.37;98628.28;5051422;28;20230;-74
2023/03/25 05:36:23;;;;;;;3.10;2.23;;;;;;;14.35;69.64;98619.00;5051380;28;20206;-74
2023/03/25 05:38:53;;;;;;;3.37;1.97;;;;;;;14.61;70.96;98625.03;5051202;28;20257;-74
2023/03/25 05:41:31;;;;;;;2.83;1.87;;;;;;;14.85;68.41;98611.56;5051261;28;20196;-74
2023/03/25 05:43:59;;;;;;;3.30;1.97;;;;;;;15.14;67.83;98618.19;5050745;28;20219;-74
2023/03/25 05:46:27;;;;;;;3.10;1.87;;;;;;;15.50;65.88;98615.47;5051123;28;20569;-74
2023/03/25 05:48:54;;;;;;;3.03;2.27;;;;;;;15.75;65.43;98612.09;5050895;28;20664;-74
2023/03/25 05:51:22;;;;;;;3.30;2.13;;;;;;;16.15;63.58;98615.75;5050653;28;20231;-74
2023/03/25 05:53:49;;;;;;;2.83;2.07;;;;;;;16.56;62.50;98620.19;5050738;28;20213;-74
2023/03/25 05:56:19;;;;;;;3.67;1.83;;;;;;;16.90;61.84;98626.03;5050389;28;20570;-75
2023/03/25 05:58:46;;;;;;;3.57;2.00;;;;;;;17.24;60.30;98624.19;5050487;28;20594;-75
2023/03/25 06:01:14;;;;;;;3.67;1.93;;;;;;;17.51;59.44;98630.72;5050513;28;20209;-75
2023/03/25 06:03:41;;;;;;;4.33;2.27;;;;;;;17.62;58.61;98630.38;5050558;28;20282;-74
2023/03/25 06:06:12;;;;;;;3.40;2.03;;;;;;;17.63;59.83;98624.25;5050734;28;20211;-75
2023/03/25 06:08:40;;;;;;;4.53;2.43;;;;;;;17.78;59.02;98627.78;5050395;28;20612;-75
2023/03/25 06:11:08;;;;;;;3.20;2.27;;;;;;;17.78;59.84;98630.34;5050341;28;20234;-75
2023/03/25 06:13:37;;;;;;;4.87;2.73;;;;;;;17.41;58.82;98630.94;5050297;28;20256;-74
2023/03/25 06:16:05;;;;;;;4.27;2.63;;;;;;;17.03;60.79;98632.47;5050228;28;20227;-74
2023/03/25 06:18:32;;;;;;;6.47;2.70;;;;;;;17.07;60.85;98626.78;5049919;28;20228;-75
2023/03/25 06:20:59;;;;;;;4.10;2.30;;;;;;;17.15;60.99;98623.41;5050373;28;20220;-75
2023/03/25 06:23:26;;;;;;;6.43;2.63;;;;;;;17.09;61.76;98618.88;5050109;28;20233;-74
2023/03/25 06:25:53;;;;;;;4.87;2.33;;;;;;;17.33;61.33;98623.19;5050458;28;20214;-74
2023/03/25 06:28:22;;;;;;;4.93;2.43;;;;;;;17.63;60.03;98630.22;5050111;28;20483;-74
2023/03/25 06:30:50;;;;;;;4.23;2.33;;;;;;;17.84;59.56;98621.91;5049970;28;20236;-74
2023/03/25 06:33:18;;;;;;;4.93;2.43;;;;;;;17.98;57.37;98620.41;5049641;28;20236;-75
2023/03/25 06:35:48;;;;;;;3.80;2.50;;;;;;;18.09;57.23;98622.63;5050045;28;20210;-74
2023/03/25 06:38:15;;;;;;;3.83;2.67;;;;;;;18.47;58.24;98627.03;5050124;28;20226;-75
2023/03/25 06:40:42;;;;;;;5.20;2.87;;;;;;;18.47;55.77;98627.03;5049988;28;20209;-74
2023/03/25 06:43:09;;;;;;;4.37;2.63;;;;;;;18.73;57.41;98635.31;5049775;28;20612;-75
2023/03/25 06:45:36;;;;;;;3.57;2.53;;;;;;;19.14;57.12;98624.59;5049910;28;20222;-74
2023/03/25 06:48:05;;;;;;;4.03;2.83;;;;;;;19.28;53.85;98635.13;5050114;28;20205;-74
2023/03/25 06:50:32;;;;;;;4.73;2.70;;;;;;;19.12;57.30;98646.47;5049949;28;20289;-74
2023/03/25 06:53:02;;;;;;;3.93;2.70;;;;;;;19.26;56.04;98644.88;5049797;28;20205;-74
2023/03/25 06:55:29;;;;;;;4.30;2.73;;;;;;;19.14;55.46;98652.28;5049695;28;20226;-74
2023/03/25 06:57:56;;;;;;;4.90;2.73;;;;;;;19.60;52.20;98645.16;5049877;28;20201;-74
2023/03/25 07:00:25;;;;;;;3.93;2.43;;;;;;;19.50;54.10;98652.41;5049783;28;20204;-73
2023/03/25 07:02:52;;;;;;;7.03;2.67;;;;;;;19.83;51.48;98650.25;5049770;28;20197;-74
2023/03/25 07:05:20;;;;;;;3.67;2.50;;;;;;;20.38;51.37;98658.47;5049848;28;20379;-73
2023/03/25 07:07:47;;;;;;;3.97;2.27;;;;;;;20.53;50.75;98655.84;5049612;28;20222;-74
2023/03/25 07:10:14;;;;;;;3.93;2.33;;;;;;;20.85;53.24;98651.94;5052535;28;20625;-74
2023/03/25 07:12:41;;;;;;;4.33;2.67;;;;;;;20.92;50.78;98655.41;5053649;28;20199;-74
2023/03/25 07:15:09;;;;;;;4.27;2.50;;;;;;;20.47;52.98;98656.56;5053529;28;20230;-74
2023/03/25 07:17:36;;;;;;;4.07;2.43;;;;;;;20.01;52.91;98659.44;5053942;28;20204;-74
2023/03/25 07:20:04;;;;;;;3.40;2.53;;;;;;;20.32;55.36;98659.22;5053785;28;20245;-74
2023/03/25 07:22:32;;;;;;;3.87;2.80;;;;;;;20.02;56.63;98659.28;5053551;28;20199;-74
2023/03/25 07:24:59;;;;;;;5.47;2.70;;;;;;;20.48;55.88;98658.97;5053651;28;20222;-74
2023/03/25 07:27:26;;;;;;;4.83;2.67;;;;;;;19.88;57.22;98668.69;5053572;28;20665;-74
2023/03/25 07:29:54;;;;;;;4.70;2.93;;;;;;;20.76;54.42;98660.84;5053187;28;20340;-74
2023/03/25 07:32:21;;;;;;;3.50;2.70;;;;;;;21.19;52.55;98653.00;5053514;28;20299;-74
2023/03/25 07:34:48;;;;;;;4.00;2.57;;;;;;;21.62;51.21;98655.50;5053248;28;20677;-74
2023/03/25 07:37:15;;;;;;;4.40;2.70;;;;;;;20.49;52.48;98657.97;5053444;28;20601;-73
2023/03/25 07:39:43;;;;;;;4.00;2.83;;;;;;;20.79;53.45;98650.09;5053753;28;20615;-74
2023/03/25 07:42:10;;;;;;;3.20;2.60;;;;;;;21.35;52.05;98654.47;5053186;28;20207;-74
2023/03/25 07:44:36;;;;;;;5.07;2.80;;;;;;;20.43;52.31;98656.13;5053202;28;20245;-74
2023/03/25 07:47:03;;;;;;;4.67;3.10;;;;;;;20.80;53.59;98654.31;5053704;28;20210;-74
2023/03/25 07:49:30;;;;;;;3.30;2.37;;;;;;;21.27;53.83;98652.84;5053172;28;20222;-74
2023/03/25 07:51:57;;;;;;;4.53;2.93;;;;;;;21.78;52.07;98655.16;5053162;28;20655;-73
2023/03/25 07:54:24;;;;;;;5.37;2.83;;;;;;;22.03;50.39;98659.88;5053202;28;20222;-74
2023/03/25 07:56:53;;;;;;;10.68;3.25;;;;;;;22.65;49.78;98656.22;5052820;28;20195;-74
2023/03/25 07:59:20;;;;;;;3.75;2.70;;;;;;;22.70;48.02;98653.81;5052807;28;20250;-74
2023/03/25 08:01:47;;;;;;;5.22;3.17;;;;;;;22.99;47.06;98660.47;5052874;28;20668;-74
2023/03/25 08:04:14;;;;;;;4.47;3.15;;;;;;;23.22;46.23;98651.44;5052880;28;20220;-74
2023/03/25 08:06:41;;;;;;;6.35;3.10;;;;;;;23.08;47.40;98648.03;5053013;28;20230;-74
2023/03/25 08:09:08;;;;;;;4.75;2.78;;;;;;;23.55;47.22;98646.13;5052963;28;20219;-74
2023/03/25 08:11:35;;;;;;;4.63;3.03;;;;;;;23.08;46.45;98653.25;5052609;28;20231;-74
2023/03/25 08:14:03;;;;;;;3.85;2.70;;;;;;;22.21;47.87;98644.53;5052915;28;20239;-74
2023/03/25 08:16:30;;;;;;;4.07;2.80;;;;;;;22.49;49.21;98651.41;5052714;28;20207;-74
2023/03/25 08:18:57;;;;;;;4.13;3.10;;;;;;;22.80;49.55;98659.44;5052700;28;20392;-74
2023/03/25 08:21:26;;;;;;;5.70;3.08;;;;;;;22.62;47.94;98655.81;5052133;28;20204;-74
2023/03/25 08:23:57;;;;;;;5.53;3.22;;;;;;;23.12;48.39;98657.03;5052260;28;20215;-74
2023/03/25 08:26:24;;;;;;;4.55;3.03;;;;;;;23.50;47.38;98665.03;5052618;28;20210;-74
2023/03/25 08:28:51;;;;;;;4.55;3.10;;;;;;;23.76;46.65;98662.56;5052152;28;20222;-74
2023/03/25 08:31:19;;;;;;;4.80;2.78;;;;;;;23.51;46.31;98665.84;5052252;28;20734;-74
2023/03/25 08:33:46;;;;;;;5.93;3.22;;;;;;;23.00;48.85;98658.66;5052426;28;20219;-74
2023/03/25 08:36:18;;;;;;;5.80;3.67;;;;;;;23.32;47.14;98658.84;5052224;28;20200;-73
2023/03/25 08:38:45;;;;;;;4.85;2.88;;;;;;;23.69;45.14;98663.34;5052156;28;20711;-74
2023/03/25 08:41:12;;;;;;;4.43;3.00;;;;;;;23.09;48.11;98657.44;5052246;28;20596;-74
2023/03/25 08:43:39;;;;;;;5.40;3.17;;;;;;;23.97;44.68;98664.91;5052384;28;20669;-74
2023/03/25 08:46:06;;;;;;;5.63;3.65;;;;;;;22.96;44.28;98658.28;5052086;28;20641;-74
2023/03/25 08:48:35;;;;;;;5.10;3.20;;;;;;;22.29;47.47;98657.38;5051790;28;20225;-74
2023/03/25 08:51:03;;;;;;;6.50;3.63;;;;;;;23.00;48.11;98658.66;5051883;28;20706;-74
2023/03/25 08:53:30;;;;;;;6.80;3.85;;;;;;;22.53;49.42;98657.81;5051879;28;20231;-74
2023/03/25 08:55:58;;;;;;;6.95;3.90;;;;;;;22.52;49.04;98658.81;5051848;28;20207;-74
2023/03/25 08:58:26;;;;;;;6.20;3.75;;;;;;;23.05;50.49;98661.47;5051878;28;20223;-74
2023/03/25 09:00:55;;;;;;;6.50;3.80;;;;;;;23.26;49.68;98658.63;5051992;28;20203;-73
2023/03/25 09:03:22;;;;;;;5.75;3.55;;;;;;;22.43;52.35;98660.81;5051507;28;20746;-73
2023/03/25 09:05:50;;;;;;;6.63;4.10;;;;;;;23.08;49.11;98665.50;5051677;28;20607;-73
2023/03/25 09:08:17;;;;;;;5.60;3.70;;;;;;;23.58;47.41;98666.59;5051748;28;20223;-73
2023/03/25 09:10:44;;;;;;;7.93;4.20;;;;;;;24.70;49.00;98658.47;5051531;28;20235;-73
2023/03/25 09:13:11;;;;;;;6.75;3.38;;;;;;;24.66;45.49;98652.06;5051224;28;20669;-74
2023/03/25 09:15:38;;;;;;;5.25;3.15;;;;;;;24.40;45.15;98648.56;5051573;28;20204;-74
2023/03/25 09:18:05;;;;;;;4.80;3.22;;;;;;;23.53;45.57;98640.31;5051334;28;20199;-73
2023/03/25 09:20:33;;;;;;;8.10;4.00;;;;;;;22.06;47.15;98647.25;5051297;28;20200;-74
2023/03/25 09:23:01;;;;;;;7.32;3.50;;;;;;;21.99;46.97;98656.03;5051414;28;20254;-73
2023/03/25 09:25:28;;;;;;;6.72;3.60;;;;;;;21.24;49.68;98653.25;5051329;28;20707;-74
2023/03/25 09:27:55;;;;;;;7.13;3.60;;;;;;;21.84;50.44;98651.78;5051272;28;20210;-74
2023/03/25 09:30:22;;;;;;;6.32;3.67;;;;;;;21.38;49.63;98654.97;5051550;28;20207;-74
2023/03/25 09:32:49;;;;;;;7.22;3.95;;;;;;;22.81;48.17;98655.03;5050380;28;20196;-73
2023/03/25 09:35:16;;;;;;;6.35;3.53;;;;;;;23.67;47.90;98647.09;5051068;28;20199;-74
2023/03/25 09:37:43;;;;;;;5.20;3.25;;;;;;;24.53;47.12;98645.91;5051415;28;20211;-73
2023/03/25 09:40:15;;;;;;;5.60;3.17;;;;;;;25.02;43.91;98641.72;5051168;28;20621;-74
2023/03/25 09:42:57;;;;;;;4.40;2.78;;;;;;;25.15;44.15;98637.41;5051008;28;20259;-74
2023/03/25 09:45:32;;;;;;;4.50;2.88;;;;;;;24.83;40.95;98638.25;5051079;28;20622;-73
2023/03/25 09:48:04;;;;;;;5.32;3.17;;;;;;;25.62;40.91;98635.88;5050963;28;20203;-73
2023/03/25 09:50:34;;;;;;;4.78;2.70;;;;;;;25.77;42.52;98627.66;5050727;28;20207;-73
2023/03/25 09:53:06;;;;;;;4.18;3.03;;;;;;;25.55;41.86;98623.91;5050623;28;20786;-74
2023/03/25 09:55:40;;;;;;;5.15;3.47;;;;;;;26.30;41.35;98626.97;5050961;28;20196;-73
2023/03/25 09:58:27;;;;;;;7.22;4.00;;;;;;;25.01;41.57;98619.16;5050820;28;20199;-73
2023/03/25 10:01:00;;;;;;;8.20;3.70;;;;;;;25.74;42.69;98612.38;5050986;28;20233;-73
2023/03/25 10:03:34;;;;;;;4.72;3.30;;;;;;;26.50;40.38;98618.03;5050674;28;20229;-73
2023/03/25 10:06:17;;;;;;;5.57;3.50;;;;;;;25.79;39.05;98609.91;5050563;28;20199;-73
2023/03/25 10:09:06;;;;;;;5.72;3.70;;;;;;;26.36;42.65;98609.56;5050739;28;20276;-73
2023/03/25 10:11:44;;;;;;;7.88;4.28;;;;;;;26.17;39.60;98600.94;5050451;28;20774;-73
2023/03/25 10:14:18;;;;;;;6.22;3.75;;;;;;;25.84;40.23;98596.97;5050222;28;20235;-73
2023/03/25 10:16:57;;;;;;;5.80;3.72;;;;;;;27.00;40.48;98594.03;5050431;28;20598;-73
2023/03/25 10:19:36;;;;;;;5.45;3.38;;;;;;;26.35;40.01;98587.78;5050377;28;20707;-73
2023/03/25 10:22:05;;;;;;;5.43;3.38;;;;;;;26.95;41.18;98594.69;5050327;28;20594;-73
2023/03/25 10:24:39;;;;;;;5.32;3.53;;;;;;;25.94;38.74;98586.75;5050478;28;20227;-73
2023/03/25 10:27:15;;;;;;;5.60;3.30;;;;;;;25.26;41.09;98581.75;5050237;28;20260;-73
2023/03/25 10:29:45;;;;;;;4.97;3.15;;;;;;;25.61;41.56;98583.75;5049978;28;20254;-74
2023/03/25 10:32:17;;;;;;;4.30;2.85;;;;;;;26.35;40.17;98582.53;5049970;28;20231;-72
2023/03/25 10:34:49;;;;;;;3.95;2.60;;;;;;;25.34;39.72;98578.84;5050037;28;20226;-73
2023/03/25 10:37:23;;;;;;;4.40;2.60;;;;;;;25.05;39.71;98570.66;5049937;28;20259;-73
2023/03/25 10:39:50;;;;;;;4.63;2.88;;;;;;;24.54;40.19;98573.53;5050159;28;20220;-73
2023/03/25 10:42:27;;;;;;;5.40;3.13;;;;;;;24.67;39.61;98568.22;5049852;28;20202;-73
2023/03/25 10:44:54;;;;;;;3.95;2.70;;;;;;;24.42;41.21;98565.56;5050057;28;20231;-73
2023/03/25 10:47:25;;;;;;;4.25;2.70;;;;;;;24.78;42.13;98569.28;5049923;28;20207;-73
2023/03/25 10:49:54;;;;;;;3.83;2.30;;;;;;;25.63;39.93;98568.63;5050067;28;20718;-73
2023/03/25 10:52:21;;;;;;;4.43;2.92;;;;;;;24.92;39.67;98573.38;5049779;28;20737;-73
2023/03/25 10:54:51;;;;;;;5.65;3.55;;;;;;;24.52;41.98;98579.00;5049754;28;20223;-73
2023/03/25 10:57:24;;;;;;;6.78;3.47;;;;;;;24.18;43.72;98570.56;5050071;28;20207;-73
2023/03/25 10:59:59;;;;;;;4.95;3.10;;;;;;;24.59;42.38;98561.44;5050146;28;20265;-73
2023/03/25 11:02:29;;;;;;;3.65;2.75;;;;;;;24.79;42.68;98563.06;5049801;28;20603;-74
2023/03/25 11:05:00;;;;;;;5.20;3.13;;;;;;;23.77;43.57;98559.75;5049839;28;20215;-73
2023/03/25 11:07:30;;;;;;;5.05;3.20;;;;;;;23.75;43.36;98562.56;5049979;28;20571;-73
2023/03/25 11:10:10;;;;;;;4.55;3.30;;;;;;;23.86;43.69;98559.31;5049802;28;20215;-74
2023/03/25 11:12:42;;;;;;;4.75;3.25;;;;;;;23.75;42.87;98561.78;5049594;28;20230;-73
2023/03/25 11:15:14;;;;;;;3.47;2.33;;;;;;;23.33;40.02;98558.69;5049894;28;20593;-73
2023/03/25 11:17:41;;;;;;;3.97;2.75;;;;;;;23.46;44.34;98556.03;5049535;28;20325;-73
2023/03/25 11:20:19;;;;;;;4.88;2.70;;;;;;;23.82;42.34;98547.66;5049344;28;20220;-74
2023/03/25 11:22:49;;;;;;;6.40;3.42;;;;;;;23.12;44.05;98547.53;5049606;28;20683;-73
2023/03/25 11:25:19;;;;;;;5.15;2.90;;;;;;;23.82;42.58;98541.63;5049428;28;20187;-73
2023/03/25 11:27:51;;;;;;;4.90;2.60;;;;;;;23.60;41.99;98538.53;5049466;28;20257;-73
2023/03/25 11:30:21;;;;;;;3.60;2.50;;;;;;;23.24;41.80;98530.25;5049550;28;20227;-73
2023/03/25 11:32:59;;;;;;;4.35;2.80;;;;;;;23.53;43.25;98532.53;5049219;28;20227;-73
2023/03/25 11:35:28;;;;;;;3.75;2.40;;;;;;;23.85;41.37;98528.16;5049468;28;20195;-73
2023/03/25 11:37:57;;;;;;;3.20;2.25;;;;;;;23.27;42.38;98529.84;5049333;28;20265;-73
2023/03/25 11:40:26;;;;;;;4.28;2.70;;;;;;;23.27;42.31;98524.63;5049632;28;20200;-73
2023/03/25 11:42:56;;;;;;;4.38;2.63;;;;;;;23.36;42.44;98517.38;5049433;28;20202;-73
2023/03/25 11:45:26;;;;;;;4.13;2.60;;;;;;;23.37;44.87;98518.94;5049346;28;20200;-73
2023/03/25 11:47:57;;;;;;;3.78;2.78;;;;;;;23.86;43.72;98524.56;5049469;28;20220;-73